Flora, IL

05:11 PM CST am 30. Januar 2015 (GMT -0600)
Flora Municipal | Change Station
CLOSE
Current Station
Flughafen
Location: Flora,
Höhe: 472 ft
Wetterstationen in der Umgebung

Höhe 472 ft 38.67 °N, 88.45 °W | Updated 16 minutes ago

Heiter
Heiter
35 °F
gefühlte 32 °F
N
4
Wind Wechselnd Wind aus Nordost

Heute
Max. -- | schwach -- °F
--% Regenrisiko
Gestern
Max. -- | schwach -- °F
Precip. -- inch
7:01 AM 5:13 PM
Zweites Viertel, 85% visible
Druck 30.48 inch
Sichtweite 10.0 Meilen
Wolken Heiter
Windchill 32 °F
Taupunkt 20 °F
Feuchtigkeit 55%
Regen 0.00 inch
Schneehöhe Nicht verfügbar..
UV 0 von 12
Pollen .10 von 12
Luftqualität Nicht verfügbar..
Flu Activity Nicht verfügbar..
METAR KFOA 302255Z AUTO 04003KT 10SM CLR 02/M06 A3048 RMK AO2 T00171064

More Conditions Fewer Conditions

Druck 30.48 inch
Sichtweite 10.0 Meilen
Wolken Heiter
Windchill 32 °F
Taupunkt 20 °F
Feuchtigkeit 55%
Regen 0.00 inch
Schneehöhe Nicht verfügbar..
UV 0 von 12
Pollen .10 von 12
Luftqualität Nicht verfügbar..
Flu Activity Nicht verfügbar..
METAR KFOA 302255Z AUTO 04003KT 10SM CLR 02/M06 A3048 RMK AO2 T00171064

More Conditions Fewer Conditions

10-Day Weather Forecast

Almanac

Astronomie

Jan. 30, 2015 Aufgang Untergang
Genaue Zeit
Bürgerliche Dämmerung
Nautische Dämmerung
Astronomische Dämmerung
Mond
Länge des sichtbaren Lichts
Tageslänge
Tomorrow will be .
, % of the Moon is Illuminated

Heutige Rekorde

State Highs State Lows

Community

WunderPhotos

Upload Photos

1,791,918 Fotos hochgeladen!

WunderBlogs® & News

Nearby

Luftqualität

  Luftqualität LQ Index Schadstoff
Not available.

Schneehöhe

Station Depth Höhe

Erdbebenaktivität

Stadt Distance Mag. Time & Date
Minimum magnitude displayed is 2.5.

küstennahe Wassertemperaturen

Ort Temperatur

Wetterstationen in der Umgebung